createdAt,value
2019-05-01T00:04:09.082Z,100223.41
2019-05-01T00:09:14.579Z,100218.10
2019-05-01T00:14:18.932Z,100218.11
2019-05-01T00:19:23.295Z,100208.55
2019-05-01T00:24:27.664Z,100206.70
2019-05-01T00:29:32.615Z,100200.78
2019-05-01T00:34:36.997Z,100202.64
2019-05-01T00:39:41.387Z,100195.90
2019-05-01T00:44:45.753Z,100192.97
2019-05-01T00:49:50.131Z,100182.98
2019-05-01T00:55:08.457Z,100187.73
2019-05-01T01:00:42.549Z,100181.39
2019-05-01T01:05:37.007Z,100177.84
2019-05-01T01:10:41.403Z,100165.64
2019-05-01T01:15:45.784Z,100168.24
2019-05-01T01:20:50.228Z,100164.91
2019-05-01T01:25:55.077Z,100152.07
2019-05-01T01:30:59.432Z,100155.59
2019-05-01T01:36:03.891Z,100153.23
2019-05-01T01:41:08.545Z,100145.86
2019-05-01T01:46:20.455Z,100131.79
2019-05-01T01:51:24.986Z,100133.60
2019-05-01T01:56:29.435Z,100131.66
2019-05-01T02:01:38.429Z,100129.52
2019-05-01T02:06:42.977Z,100118.48
2019-05-01T02:11:47.740Z,100118.21
2019-05-01T02:16:52.130Z,100121.30
2019-05-01T02:21:56.489Z,100114.53
2019-05-01T02:27:19.056Z,100105.16
2019-05-01T02:32:24.103Z,100104.92
2019-05-01T02:37:29.771Z,100105.58
2019-05-01T02:42:34.679Z,100098.13
2019-05-01T02:47:39.202Z,100101.73
2019-05-01T02:52:44.554Z,100101.42
2019-05-01T02:57:49.501Z,100099.34
2019-05-01T03:02:55.578Z,100100.39
2019-05-01T03:07:59.970Z,100105.48
2019-05-01T03:13:04.532Z,100118.00
2019-05-01T03:18:10.604Z,100122.55
2019-05-01T03:23:16.748Z,100111.13
2019-05-01T03:28:22.535Z,100123.14
2019-05-01T03:33:27.056Z,100110.72
2019-05-01T03:38:31.470Z,100118.88
2019-05-01T03:43:36.595Z,100102.75
2019-05-01T03:48:41.136Z,100104.89
2019-05-01T03:53:45.824Z,100085.69
2019-05-01T03:58:50.364Z,100083.78
2019-05-01T04:04:02.205Z,100073.88
2019-05-01T04:09:07.798Z,100073.20
2019-05-01T04:14:12.622Z,100072.47
2019-05-01T04:19:17.088Z,100073.43
2019-05-01T04:24:21.516Z,100071.25
2019-05-01T04:29:27.542Z,100074.02
2019-05-01T04:34:36.618Z,100081.48
2019-05-01T04:39:41.163Z,100080.62
2019-05-01T04:44:45.788Z,100078.68
2019-05-01T04:49:50.724Z,100091.83
2019-05-01T04:54:55.288Z,100102.23
2019-05-01T05:00:00.126Z,100117.06
2019-05-01T05:05:06.093Z,100106.77
2019-05-01T05:10:10.610Z,100094.33
2019-05-01T05:15:25.555Z,100080.24
2019-05-01T05:20:29.996Z,100080.00
2019-05-01T05:25:35.060Z,100079.96
2019-05-01T05:30:41.074Z,100071.11
2019-05-01T05:35:46.722Z,100079.38
2019-05-01T05:40:51.462Z,100070.02
2019-05-01T05:45:56.289Z,100084.85
2019-05-01T05:51:08.092Z,100080.06
2019-05-01T05:56:19.714Z,100081.86
2019-05-01T06:01:30.144Z,100091.46
2019-05-01T06:06:38.809Z,100095.32
2019-05-01T06:11:54.118Z,100077.33
2019-05-01T06:17:04.110Z,100085.95
2019-05-01T06:22:11.603Z,100089.61
2019-05-01T06:27:16.931Z,100070.64
2019-05-01T06:32:21.314Z,100075.20
2019-05-01T06:37:28.877Z,100073.72
2019-05-01T06:42:33.258Z,100078.28
2019-05-01T06:47:48.366Z,100092.03
2019-05-01T06:52:52.728Z,100084.31
2019-05-01T06:57:57.412Z,100095.50
2019-05-01T07:03:05.894Z,100102.97
2019-05-01T07:08:08.019Z,100091.82
2019-05-01T07:13:12.418Z,100092.69
2019-05-01T07:18:18.812Z,100092.69
2019-05-01T07:23:23.188Z,100101.31
2019-05-01T07:28:34.208Z,100093.05
2019-05-01T07:33:35.672Z,100092.00
2019-05-01T07:38:40.991Z,100091.86
2019-05-01T07:44:05.361Z,100089.94
2019-05-01T07:49:13.071Z,100076.28
2019-05-01T07:54:16.153Z,100083.21
2019-05-01T07:59:22.877Z,100087.30
2019-05-01T08:04:35.773Z,100103.80
2019-05-01T08:09:34.004Z,100092.91
2019-05-01T08:14:38.396Z,100100.34
2019-05-01T08:19:44.417Z,100101.95
2019-05-01T08:24:48.816Z,100097.98
2019-05-01T08:29:54.848Z,100099.47
2019-05-01T08:35:02.428Z,100092.05
2019-05-01T08:40:07.817Z,100086.94
2019-05-01T08:45:35.721Z,100089.43
2019-05-01T08:50:38.172Z,100089.43
2019-05-01T08:55:45.218Z,100081.73
2019-05-01T09:00:48.785Z,100081.86
2019-05-01T09:05:57.463Z,100079.41
2019-05-01T09:11:02.143Z,100082.05
2019-05-01T09:16:06.319Z,100086.56
2019-05-01T09:21:10.744Z,100091.39
2019-05-01T09:26:19.621Z,100075.05
2019-05-01T09:31:25.732Z,100086.81
2019-05-01T09:36:30.313Z,100085.64
2019-05-01T09:41:38.427Z,100090.25
2019-05-01T09:46:41.336Z,100080.88
2019-05-01T09:51:50.024Z,100079.00
2019-05-01T09:56:54.704Z,100080.68
2019-05-01T10:02:03.011Z,100081.39
2019-05-01T10:07:06.429Z,100073.84
2019-05-01T10:12:13.562Z,100061.96
2019-05-01T10:17:22.455Z,100057.39
2019-05-01T10:22:26.841Z,100058.28
2019-05-01T10:27:35.743Z,100044.77
2019-05-01T10:32:40.687Z,100043.26
2019-05-01T10:37:48.156Z,100047.86
2019-05-01T10:42:52.695Z,100043.52
2019-05-01T10:47:58.666Z,100036.02
2019-05-01T10:53:03.082Z,100020.31
2019-05-01T10:58:07.445Z,100012.72
2019-05-01T11:03:12.082Z,100014.16
2019-05-01T11:08:17.381Z,100004.54
2019-05-01T11:13:21.748Z,99999.11
2019-05-01T11:18:26.267Z,100004.92
2019-05-01T11:23:30.916Z,99990.98
2019-05-01T11:28:35.348Z,99992.32
2019-05-01T11:33:47.366Z,99989.92
2019-05-01T11:38:59.328Z,99981.20
2019-05-01T11:44:04.019Z,99973.51
2019-05-01T11:49:08.410Z,99979.32
2019-05-01T11:54:12.901Z,99974.49
2019-05-01T11:59:18.237Z,99972.50
2019-05-01T12:04:22.608Z,99972.55
2019-05-01T12:09:27.965Z,99971.13
2019-05-01T12:14:32.365Z,99967.78
2019-05-01T12:19:36.764Z,99962.83
2019-05-01T12:24:44.415Z,99972.78
2019-05-01T12:29:48.794Z,99961.38
2019-05-01T12:34:53.224Z,99957.34
2019-05-01T12:39:57.593Z,99956.93
2019-05-01T12:45:02.047Z,99951.83
2019-05-01T12:50:08.843Z,99947.50
2019-05-01T12:55:20.831Z,99950.75
2019-05-01T13:00:46.688Z,99943.27
2019-05-01T13:05:51.075Z,99933.80
2019-05-01T13:10:55.447Z,99923.47
2019-05-01T13:15:59.801Z,99927.55
2019-05-01T13:21:04.311Z,99925.76
2019-05-01T13:26:10.423Z,99910.37
2019-05-01T13:31:25.816Z,99905.88
2019-05-01T13:36:30.176Z,99899.75
2019-05-01T13:41:34.531Z,99889.33
2019-05-01T13:46:38.915Z,99887.58
2019-05-01T13:51:43.329Z,99886.84
2019-05-01T13:56:47.731Z,99883.61
2019-05-01T14:01:52.125Z,99880.80
2019-05-01T14:06:56.465Z,99875.23
2019-05-01T14:12:00.829Z,99873.41
2019-05-01T14:17:05.202Z,99865.55
2019-05-01T14:22:27.642Z,99868.34
2019-05-01T14:27:35.339Z,99854.78
2019-05-01T14:32:41.611Z,99857.54
2019-05-01T14:37:47.053Z,99854.36
2019-05-01T14:42:51.824Z,99847.44
2019-05-01T14:47:58.107Z,99842.86
2019-05-01T14:53:04.367Z,99839.07
2019-05-01T14:58:08.903Z,99832.22
2019-05-01T15:03:13.323Z,99814.14
2019-05-01T15:08:17.707Z,99811.66
2019-05-01T15:13:38.403Z,99811.13
2019-05-01T15:18:50.378Z,99804.57
2019-05-01T15:23:54.743Z,99806.64
2019-05-01T15:28:59.147Z,99808.19
2019-05-01T15:34:03.813Z,99796.55
2019-05-01T15:39:11.515Z,99796.23
2019-05-01T15:44:19.989Z,99792.27
2019-05-01T15:49:24.353Z,99788.97
2019-05-01T15:54:28.769Z,99784.04
2019-05-01T15:59:33.288Z,99785.40
2019-05-01T16:04:37.758Z,99774.30
2019-05-01T16:09:44.212Z,99772.06
2019-05-01T16:14:53.307Z,99766.38
2019-05-01T16:19:57.697Z,99761.15
2019-05-01T16:25:02.206Z,99757.90
2019-05-01T16:30:07.767Z,99773.78
2019-05-01T16:35:23.080Z,99765.28
2019-05-01T16:40:29.552Z,99772.44
2019-05-01T16:45:34.054Z,99761.90
2019-05-01T16:50:38.447Z,99757.34
2019-05-01T16:55:43.544Z,99751.84
2019-05-01T17:00:56.658Z,99754.45
2019-05-01T17:06:02.744Z,99748.09
2019-05-01T17:11:07.908Z,99755.17
2019-05-01T17:16:12.255Z,99749.13
2019-05-01T17:21:16.794Z,99749.10
2019-05-01T17:26:21.687Z,99751.34
2019-05-01T17:31:27.969Z,99746.14
2019-05-01T17:36:32.342Z,99744.41
2019-05-01T17:41:36.912Z,99748.16
2019-05-01T17:46:41.942Z,99744.98
2019-05-01T17:51:47.623Z,99744.93
2019-05-01T17:56:53.840Z,99741.69
2019-05-01T18:01:59.905Z,99741.70
2019-05-01T18:07:04.288Z,99750.64
2019-05-01T18:12:08.624Z,99741.18
2019-05-01T18:17:13.055Z,99750.36
2019-05-01T18:22:19.089Z,99744.96
2019-05-01T18:27:41.601Z,99749.44
2019-05-01T18:32:51.954Z,99750.41
2019-05-01T18:37:56.655Z,99745.09
2019-05-01T18:43:01.081Z,99754.11
2019-05-01T18:48:06.584Z,99750.55
2019-05-01T18:53:11.434Z,99755.29
2019-05-01T18:58:17.265Z,99758.40
2019-05-01T19:03:22.538Z,99758.23
2019-05-01T19:08:28.079Z,99763.39
2019-05-01T19:13:32.512Z,99765.48
2019-05-01T19:18:36.962Z,99760.42
2019-05-01T19:23:41.679Z,99767.13
2019-05-01T19:28:47.089Z,99765.47
2019-05-01T19:33:51.520Z,99771.75
2019-05-01T19:38:55.898Z,99764.53
2019-05-01T19:44:00.384Z,99761.17
2019-05-01T19:49:04.842Z,99765.33
2019-05-01T19:54:09.266Z,99755.86
2019-05-01T19:59:13.653Z,99753.98
2019-05-01T20:04:18.073Z,99754.94
2019-05-01T20:09:23.680Z,99753.03
2019-05-01T20:14:28.014Z,99756.61
2019-05-01T20:19:33.032Z,99755.31
2019-05-01T20:24:39.817Z,99745.52
2019-05-01T20:29:43.504Z,99746.68
2019-05-01T20:34:52.341Z,99749.03
2019-05-01T20:39:53.949Z,99749.45
2019-05-01T20:45:05.520Z,99741.02
2019-05-01T20:50:07.313Z,99735.20
2019-05-01T20:55:11.822Z,99737.95
2019-05-01T21:00:18.608Z,99739.99
2019-05-01T21:05:27.783Z,99741.58
2019-05-01T21:10:34.647Z,99733.87
2019-05-01T21:15:39.872Z,99738.30
2019-05-01T21:20:44.225Z,99737.64
2019-05-01T21:25:48.622Z,99734.35
2019-05-01T21:30:54.360Z,99726.47
2019-05-01T21:35:59.505Z,99721.48
2019-05-01T21:41:05.042Z,99717.72
2019-05-01T21:46:09.396Z,99715.31
2019-05-01T21:51:13.792Z,99717.73
2019-05-01T21:56:18.196Z,99707.98
2019-05-01T22:01:22.558Z,99708.84
2019-05-01T22:06:27.240Z,99707.14
2019-05-01T22:11:33.090Z,99700.19
2019-05-01T22:16:37.705Z,99705.95
2019-05-01T22:22:02.061Z,99703.52
2019-05-01T22:27:16.968Z,99700.11
2019-05-01T22:32:32.400Z,99697.26
2019-05-01T22:37:34.908Z,99694.81
2019-05-01T22:42:39.374Z,99692.13
2019-05-01T22:47:46.013Z,99685.78
2019-05-01T22:52:50.946Z,99680.00
2019-05-01T22:57:55.344Z,99679.91
2019-05-01T23:03:05.624Z,99683.05
2019-05-01T23:08:07.518Z,99680.01
2019-05-01T23:13:12.088Z,99669.12
2019-05-01T23:18:17.466Z,99673.66
2019-05-01T23:23:21.826Z,99669.05
2019-05-01T23:28:26.184Z,99659.10
2019-05-01T23:33:30.539Z,99659.45
2019-05-01T23:38:34.915Z,99657.50
2019-05-01T23:43:39.338Z,99654.33
2019-05-01T23:48:43.687Z,99646.23
2019-05-01T23:53:49.328Z,99637.58
2019-05-01T23:58:53.842Z,99624.47
